Terminal Aerodrome Forecast
Issued by NWS Binghamton, NY

Home | Current Version | Previous Version | Text Only | Print | Product List | Glossary On
Versions: 1 2 3 4 5 6 7 8 9 10 11 12 13 14 15 16 17 18
000
FTUS41 KBGM 012300
TAFAVP
TAF
KAVP 012337Z 0200/0224 24004KT 1SM -SN OVC025
      TEMPO 0200/0204 4SM -SN
     FM020400 28010KT P6SM -SHSN OVC025
     FM021400 30015G25KT P6SM SCT025 BKN050=

USA.gov is the U.S. government's official web portal to all federal, state and local government web resources and services.